sensor_id;sensor_type;location;lat;lon;timestamp;P1;durP1;ratioP1;P2;durP2;ratioP2
58898;SDS011;44680;48.342;7.856;2022-12-07T00:01:18;54.47;;;30.05;;
58898;SDS011;44680;48.342;7.856;2022-12-07T00:03:46;52.58;;;30.13;;
58898;SDS011;44680;48.342;7.856;2022-12-07T00:06:12;52.10;;;28.60;;
58898;SDS011;44680;48.342;7.856;2022-12-07T00:08:39;52.65;;;29.20;;
58898;SDS011;44680;48.342;7.856;2022-12-07T00:11:05;54.10;;;28.98;;
58898;SDS011;44680;48.342;7.856;2022-12-07T00:13:31;53.83;;;29.77;;
58898;SDS011;44680;48.342;7.856;2022-12-07T00:16:04;54.45;;;29.73;;
58898;SDS011;44680;48.342;7.856;2022-12-07T00:18:35;54.80;;;29.08;;
58898;SDS011;44680;48.342;7.856;2022-12-07T00:21:05;54.83;;;28.42;;
58898;SDS011;44680;48.342;7.856;2022-12-07T00:23:33;53.97;;;28.73;;
58898;SDS011;44680;48.342;7.856;2022-12-07T00:26:09;51.65;;;28.42;;
58898;SDS011;44680;48.342;7.856;2022-12-07T00:28:36;51.53;;;27.48;;
58898;SDS011;44680;48.342;7.856;2022-12-07T00:31:09;54.17;;;28.05;;
58898;SDS011;44680;48.342;7.856;2022-12-07T00:33:35;96.22;;;40.60;;
58898;SDS011;44680;48.342;7.856;2022-12-07T00:36:02;64.05;;;31.35;;
58898;SDS011;44680;48.342;7.856;2022-12-07T00:38:30;48.60;;;25.88;;
58898;SDS011;44680;48.342;7.856;2022-12-07T00:41:00;48.53;;;25.33;;
58898;SDS011;44680;48.342;7.856;2022-12-07T00:43:27;46.63;;;25.55;;
58898;SDS011;44680;48.342;7.856;2022-12-07T00:45:53;48.03;;;25.38;;
58898;SDS011;44680;48.342;7.856;2022-12-07T00:48:18;52.40;;;27.17;;
58898;SDS011;44680;48.342;7.856;2022-12-07T00:50:44;50.10;;;27.75;;
58898;SDS011;44680;48.342;7.856;2022-12-07T00:53:09;50.83;;;27.23;;
58898;SDS011;44680;48.342;7.856;2022-12-07T00:55:35;52.30;;;26.88;;
58898;SDS011;44680;48.342;7.856;2022-12-07T00:58:01;52.05;;;26.63;;
58898;SDS011;44680;48.342;7.856;2022-12-07T01:00:26;44.15;;;25.30;;
58898;SDS011;44680;48.342;7.856;2022-12-07T01:02:52;44.13;;;23.88;;
58898;SDS011;44680;48.342;7.856;2022-12-07T01:05:17;45.92;;;23.38;;
58898;SDS011;44680;48.342;7.856;2022-12-07T01:07:43;44.75;;;24.15;;
58898;SDS011;44680;48.342;7.856;2022-12-07T01:10:08;41.90;;;22.95;;
58898;SDS011;44680;48.342;7.856;2022-12-07T01:12:34;44.25;;;24.27;;
58898;SDS011;44680;48.342;7.856;2022-12-07T01:14:59;43.67;;;22.75;;
58898;SDS011;44680;48.342;7.856;2022-12-07T01:17:24;45.05;;;23.92;;
58898;SDS011;44680;48.342;7.856;2022-12-07T01:19:50;41.88;;;21.80;;
58898;SDS011;44680;48.342;7.856;2022-12-07T01:22:15;47.17;;;23.80;;
58898;SDS011;44680;48.342;7.856;2022-12-07T01:24:40;40.20;;;22.10;;
58898;SDS011;44680;48.342;7.856;2022-12-07T01:27:06;37.28;;;20.05;;
58898;SDS011;44680;48.342;7.856;2022-12-07T01:29:31;39.72;;;21.35;;
58898;SDS011;44680;48.342;7.856;2022-12-07T01:31:56;40.38;;;20.45;;
58898;SDS011;44680;48.342;7.856;2022-12-07T01:34:21;38.30;;;18.90;;
58898;SDS011;44680;48.342;7.856;2022-12-07T01:36:47;41.17;;;21.27;;
58898;SDS011;44680;48.342;7.856;2022-12-07T01:39:12;39.53;;;20.52;;
58898;SDS011;44680;48.342;7.856;2022-12-07T01:41:39;37.67;;;19.95;;
58898;SDS011;44680;48.342;7.856;2022-12-07T01:46:38;38.90;;;20.17;;
58898;SDS011;44680;48.342;7.856;2022-12-07T01:49:05;40.20;;;20.02;;
58898;SDS011;44680;48.342;7.856;2022-12-07T01:51:31;39.00;;;19.73;;
58898;SDS011;44680;48.342;7.856;2022-12-07T01:53:57;40.45;;;20.27;;
58898;SDS011;44680;48.342;7.856;2022-12-07T01:56:23;38.83;;;20.52;;
58898;SDS011;44680;48.342;7.856;2022-12-07T01:58:50;36.33;;;19.67;;
58898;SDS011;44680;48.342;7.856;2022-12-07T02:01:16;37.72;;;20.13;;
58898;SDS011;44680;48.342;7.856;2022-12-07T02:03:42;41.65;;;19.88;;
58898;SDS011;44680;48.342;7.856;2022-12-07T02:06:08;37.63;;;19.10;;
58898;SDS011;44680;48.342;7.856;2022-12-07T02:08:36;40.30;;;21.08;;
58898;SDS011;44680;48.342;7.856;2022-12-07T02:11:02;38.25;;;20.35;;
58898;SDS011;44680;48.342;7.856;2022-12-07T02:13:29;40.30;;;21.00;;
58898;SDS011;44680;48.342;7.856;2022-12-07T02:26:53;41.30;;;21.45;;
58898;SDS011;44680;48.342;7.856;2022-12-07T02:29:27;43.10;;;20.05;;
58898;SDS011;44680;48.342;7.856;2022-12-07T02:34:56;41.40;;;19.70;;
58898;SDS011;44680;48.342;7.856;2022-12-07T02:37:36;40.67;;;20.92;;
58898;SDS011;44680;48.342;7.856;2022-12-07T02:40:09;38.85;;;20.55;;
58898;SDS011;44680;48.342;7.856;2022-12-07T02:42:39;37.75;;;19.95;;
58898;SDS011;44680;48.342;7.856;2022-12-07T02:45:07;39.05;;;20.48;;
58898;SDS011;44680;48.342;7.856;2022-12-07T02:47:33;39.20;;;19.23;;
58898;SDS011;44680;48.342;7.856;2022-12-07T02:49:59;37.78;;;20.85;;
58898;SDS011;44680;48.342;7.856;2022-12-07T02:52:28;38.55;;;20.27;;
58898;SDS011;44680;48.342;7.856;2022-12-07T02:54:53;37.55;;;20.73;;
58898;SDS011;44680;48.342;7.856;2022-12-07T03:00:12;35.97;;;19.17;;
58898;SDS011;44680;48.342;7.856;2022-12-07T03:05:36;37.65;;;19.63;;
58898;SDS011;44680;48.342;7.856;2022-12-07T03:11:19;38.00;;;18.90;;
58898;SDS011;44680;48.342;7.856;2022-12-07T03:14:04;38.88;;;19.15;;
58898;SDS011;44680;48.342;7.856;2022-12-07T03:16:45;40.88;;;19.98;;
58898;SDS011;44680;48.342;7.856;2022-12-07T03:19:16;36.22;;;18.67;;
58898;SDS011;44680;48.342;7.856;2022-12-07T03:21:47;39.13;;;19.58;;
58898;SDS011;44680;48.342;7.856;2022-12-07T03:24:20;37.45;;;19.77;;
58898;SDS011;44680;48.342;7.856;2022-12-07T03:27:33;36.58;;;19.30;;
58898;SDS011;44680;48.342;7.856;2022-12-07T03:29:57;33.60;;;18.92;;
58898;SDS011;44680;48.342;7.856;2022-12-07T03:37:50;37.00;;;18.45;;
58898;SDS011;44680;48.342;7.856;2022-12-07T03:43:02;37.13;;;18.00;;
58898;SDS011;44680;48.342;7.856;2022-12-07T03:45:33;36.78;;;19.05;;
58898;SDS011;44680;48.342;7.856;2022-12-07T03:48:06;33.67;;;17.45;;
58898;SDS011;44680;48.342;7.856;2022-12-07T03:50:44;35.03;;;16.88;;
58898;SDS011;44680;48.342;7.856;2022-12-07T03:53:15;36.60;;;19.50;;
58898;SDS011;44680;48.342;7.856;2022-12-07T03:55:44;35.00;;;17.83;;
58898;SDS011;44680;48.342;7.856;2022-12-07T03:58:12;35.55;;;18.33;;
58898;SDS011;44680;48.342;7.856;2022-12-07T04:00:41;34.05;;;18.20;;
58898;SDS011;44680;48.342;7.856;2022-12-07T04:03:07;32.75;;;16.67;;
58898;SDS011;44680;48.342;7.856;2022-12-07T04:05:32;30.77;;;16.85;;
58898;SDS011;44680;48.342;7.856;2022-12-07T04:07:58;34.40;;;17.15;;
58898;SDS011;44680;48.342;7.856;2022-12-07T04:10:23;31.55;;;16.15;;
58898;SDS011;44680;48.342;7.856;2022-12-07T04:12:48;29.40;;;14.82;;
58898;SDS011;44680;48.342;7.856;2022-12-07T04:15:13;30.45;;;15.68;;
58898;SDS011;44680;48.342;7.856;2022-12-07T04:17:39;29.50;;;15.20;;
58898;SDS011;44680;48.342;7.856;2022-12-07T04:20:05;29.15;;;14.90;;
58898;SDS011;44680;48.342;7.856;2022-12-07T04:22:30;29.42;;;15.45;;
58898;SDS011;44680;48.342;7.856;2022-12-07T04:24:56;32.63;;;15.55;;
58898;SDS011;44680;48.342;7.856;2022-12-07T04:27:21;30.90;;;14.50;;
58898;SDS011;44680;48.342;7.856;2022-12-07T04:29:46;28.80;;;14.27;;
58898;SDS011;44680;48.342;7.856;2022-12-07T04:32:12;29.63;;;14.75;;
58898;SDS011;44680;48.342;7.856;2022-12-07T04:34:37;27.90;;;15.07;;
58898;SDS011;44680;48.342;7.856;2022-12-07T04:37:02;28.25;;;14.32;;
58898;SDS011;44680;48.342;7.856;2022-12-07T04:39:28;28.48;;;13.80;;
58898;SDS011;44680;48.342;7.856;2022-12-07T04:41:55;29.50;;;14.75;;
58898;SDS011;44680;48.342;7.856;2022-12-07T04:44:21;27.40;;;14.05;;
58898;SDS011;44680;48.342;7.856;2022-12-07T04:46:47;27.48;;;13.93;;
58898;SDS011;44680;48.342;7.856;2022-12-07T04:49:12;29.02;;;14.45;;
58898;SDS011;44680;48.342;7.856;2022-12-07T04:51:38;28.77;;;14.23;;
58898;SDS011;44680;48.342;7.856;2022-12-07T04:54:04;29.65;;;14.40;;
58898;SDS011;44680;48.342;7.856;2022-12-07T04:56:29;26.88;;;13.77;;
58898;SDS011;44680;48.342;7.856;2022-12-07T04:58:55;29.23;;;14.23;;
58898;SDS011;44680;48.342;7.856;2022-12-07T05:01:21;30.60;;;15.23;;
58898;SDS011;44680;48.342;7.856;2022-12-07T05:03:47;30.10;;;15.45;;
58898;SDS011;44680;48.342;7.856;2022-12-07T05:06:12;29.15;;;14.90;;
58898;SDS011;44680;48.342;7.856;2022-12-07T05:08:38;30.48;;;15.48;;
58898;SDS011;44680;48.342;7.856;2022-12-07T05:11:04;28.25;;;13.70;;
58898;SDS011;44680;48.342;7.856;2022-12-07T05:13:30;28.48;;;14.15;;
58898;SDS011;44680;48.342;7.856;2022-12-07T05:15:56;29.55;;;14.15;;
58898;SDS011;44680;48.342;7.856;2022-12-07T05:18:21;27.50;;;14.15;;
58898;SDS011;44680;48.342;7.856;2022-12-07T05:20:47;28.13;;;13.93;;
58898;SDS011;44680;48.342;7.856;2022-12-07T05:23:12;28.13;;;13.65;;
58898;SDS011;44680;48.342;7.856;2022-12-07T05:25:37;28.33;;;14.82;;
58898;SDS011;44680;48.342;7.856;2022-12-07T05:28:03;28.30;;;13.63;;
58898;SDS011;44680;48.342;7.856;2022-12-07T05:30:29;27.95;;;14.13;;
58898;SDS011;44680;48.342;7.856;2022-12-07T05:32:55;28.27;;;13.40;;
58898;SDS011;44680;48.342;7.856;2022-12-07T05:35:21;28.35;;;14.05;;
58898;SDS011;44680;48.342;7.856;2022-12-07T05:37:46;26.67;;;12.95;;
58898;SDS011;44680;48.342;7.856;2022-12-07T05:40:12;27.42;;;14.68;;
58898;SDS011;44680;48.342;7.856;2022-12-07T05:42:38;26.58;;;12.63;;
58898;SDS011;44680;48.342;7.856;2022-12-07T05:45:04;27.20;;;13.77;;
58898;SDS011;44680;48.342;7.856;2022-12-07T05:47:30;29.38;;;14.98;;
58898;SDS011;44680;48.342;7.856;2022-12-07T05:49:55;30.23;;;14.38;;
58898;SDS011;44680;48.342;7.856;2022-12-07T05:52:20;29.27;;;14.23;;
58898;SDS011;44680;48.342;7.856;2022-12-07T05:54:46;32.60;;;14.35;;
58898;SDS011;44680;48.342;7.856;2022-12-07T05:57:11;32.85;;;15.48;;
58898;SDS011;44680;48.342;7.856;2022-12-07T05:59:37;30.02;;;14.95;;
58898;SDS011;44680;48.342;7.856;2022-12-07T06:02:03;29.10;;;15.27;;
58898;SDS011;44680;48.342;7.856;2022-12-07T06:04:34;30.45;;;15.18;;
58898;SDS011;44680;48.342;7.856;2022-12-07T06:07:01;29.85;;;14.57;;
58898;SDS011;44680;48.342;7.856;2022-12-07T06:09:27;28.10;;;13.82;;
58898;SDS011;44680;48.342;7.856;2022-12-07T06:11:53;28.38;;;13.85;;
58898;SDS011;44680;48.342;7.856;2022-12-07T06:14:38;31.00;;;14.10;;
58898;SDS011;44680;48.342;7.856;2022-12-07T06:17:04;30.73;;;15.18;;
58898;SDS011;44680;48.342;7.856;2022-12-07T06:19:29;30.70;;;14.55;;
58898;SDS011;44680;48.342;7.856;2022-12-07T06:21:55;27.60;;;13.38;;
58898;SDS011;44680;48.342;7.856;2022-12-07T06:24:20;28.85;;;13.82;;
58898;SDS011;44680;48.342;7.856;2022-12-07T06:26:46;29.08;;;13.57;;
58898;SDS011;44680;48.342;7.856;2022-12-07T06:29:12;27.77;;;13.35;;
58898;SDS011;44680;48.342;7.856;2022-12-07T06:31:37;29.48;;;14.43;;
58898;SDS011;44680;48.342;7.856;2022-12-07T06:34:07;29.73;;;14.38;;
58898;SDS011;44680;48.342;7.856;2022-12-07T06:36:35;28.45;;;14.63;;
58898;SDS011;44680;48.342;7.856;2022-12-07T06:39:00;29.73;;;13.80;;
58898;SDS011;44680;48.342;7.856;2022-12-07T06:41:26;25.52;;;12.10;;
58898;SDS011;44680;48.342;7.856;2022-12-07T06:43:51;26.45;;;12.55;;
58898;SDS011;44680;48.342;7.856;2022-12-07T06:46:17;30.95;;;13.73;;
58898;SDS011;44680;48.342;7.856;2022-12-07T06:48:42;27.40;;;13.70;;
58898;SDS011;44680;48.342;7.856;2022-12-07T06:51:08;27.92;;;13.05;;
58898;SDS011;44680;48.342;7.856;2022-12-07T06:53:33;28.02;;;14.00;;
58898;SDS011;44680;48.342;7.856;2022-12-07T06:55:59;28.17;;;12.70;;
58898;SDS011;44680;48.342;7.856;2022-12-07T06:58:24;26.13;;;12.43;;
58898;SDS011;44680;48.342;7.856;2022-12-07T07:00:50;25.42;;;12.32;;
58898;SDS011;44680;48.342;7.856;2022-12-07T07:03:15;29.08;;;13.40;;
58898;SDS011;44680;48.342;7.856;2022-12-07T07:05:41;27.23;;;13.88;;
58898;SDS011;44680;48.342;7.856;2022-12-07T07:08:07;26.10;;;12.82;;
58898;SDS011;44680;48.342;7.856;2022-12-07T07:10:33;29.35;;;13.50;;
58898;SDS011;44680;48.342;7.856;2022-12-07T07:12:58;27.48;;;12.90;;
58898;SDS011;44680;48.342;7.856;2022-12-07T07:15:24;26.48;;;12.85;;
58898;SDS011;44680;48.342;7.856;2022-12-07T07:17:49;28.52;;;13.55;;
58898;SDS011;44680;48.342;7.856;2022-12-07T07:20:14;28.27;;;12.80;;
58898;SDS011;44680;48.342;7.856;2022-12-07T07:22:40;25.50;;;13.05;;
58898;SDS011;44680;48.342;7.856;2022-12-07T07:25:05;28.15;;;13.63;;
58898;SDS011;44680;48.342;7.856;2022-12-07T07:27:30;27.80;;;13.82;;
58898;SDS011;44680;48.342;7.856;2022-12-07T07:29:56;28.42;;;13.57;;
58898;SDS011;44680;48.342;7.856;2022-12-07T07:32:21;28.38;;;13.32;;
58898;SDS011;44680;48.342;7.856;2022-12-07T07:34:47;30.30;;;14.55;;
58898;SDS011;44680;48.342;7.856;2022-12-07T07:37:12;30.00;;;14.38;;
58898;SDS011;44680;48.342;7.856;2022-12-07T07:39:38;31.25;;;14.60;;
58898;SDS011;44680;48.342;7.856;2022-12-07T07:42:03;87.07;;;34.22;;
58898;SDS011;44680;48.342;7.856;2022-12-07T07:44:29;31.50;;;15.73;;
58898;SDS011;44680;48.342;7.856;2022-12-07T07:46:54;30.60;;;14.95;;
58898;SDS011;44680;48.342;7.856;2022-12-07T07:49:20;30.38;;;13.75;;
58898;SDS011;44680;48.342;7.856;2022-12-07T07:51:45;30.52;;;15.55;;
58898;SDS011;44680;48.342;7.856;2022-12-07T07:54:10;29.08;;;15.23;;
58898;SDS011;44680;48.342;7.856;2022-12-07T07:56:35;29.63;;;14.18;;
58898;SDS011;44680;48.342;7.856;2022-12-07T07:59:01;28.70;;;14.05;;
58898;SDS011;44680;48.342;7.856;2022-12-07T08:01:26;27.38;;;13.32;;
58898;SDS011;44680;48.342;7.856;2022-12-07T08:03:51;31.23;;;14.82;;
58898;SDS011;44680;48.342;7.856;2022-12-07T08:06:17;27.38;;;13.90;;
58898;SDS011;44680;48.342;7.856;2022-12-07T08:08:42;31.20;;;14.50;;
58898;SDS011;44680;48.342;7.856;2022-12-07T08:11:08;28.65;;;13.82;;
58898;SDS011;44680;48.342;7.856;2022-12-07T08:13:33;26.52;;;12.95;;
58898;SDS011;44680;48.342;7.856;2022-12-07T08:16:02;29.13;;;13.57;;
58898;SDS011;44680;48.342;7.856;2022-12-07T08:18:35;28.73;;;14.00;;
58898;SDS011;44680;48.342;7.856;2022-12-07T08:21:01;29.98;;;14.38;;
58898;SDS011;44680;48.342;7.856;2022-12-07T08:23:27;30.30;;;14.45;;
58898;SDS011;44680;48.342;7.856;2022-12-07T08:25:52;30.58;;;15.45;;
58898;SDS011;44680;48.342;7.856;2022-12-07T08:28:18;28.67;;;13.63;;
58898;SDS011;44680;48.342;7.856;2022-12-07T08:30:43;29.67;;;13.77;;
58898;SDS011;44680;48.342;7.856;2022-12-07T08:33:09;27.23;;;13.57;;
58898;SDS011;44680;48.342;7.856;2022-12-07T08:35:35;29.90;;;14.40;;
58898;SDS011;44680;48.342;7.856;2022-12-07T08:38:00;28.42;;;14.30;;
58898;SDS011;44680;48.342;7.856;2022-12-07T08:40:27;29.15;;;13.68;;
58898;SDS011;44680;48.342;7.856;2022-12-07T08:42:53;29.55;;;14.43;;
58898;SDS011;44680;48.342;7.856;2022-12-07T08:45:19;28.48;;;13.85;;
58898;SDS011;44680;48.342;7.856;2022-12-07T08:47:55;29.80;;;14.05;;
58898;SDS011;44680;48.342;7.856;2022-12-07T08:50:25;25.98;;;12.38;;
58898;SDS011;44680;48.342;7.856;2022-12-07T08:52:54;28.92;;;13.23;;
58898;SDS011;44680;48.342;7.856;2022-12-07T08:55:20;27.05;;;13.68;;
58898;SDS011;44680;48.342;7.856;2022-12-07T08:57:46;28.90;;;13.05;;
58898;SDS011;44680;48.342;7.856;2022-12-07T09:00:11;27.70;;;13.27;;
58898;SDS011;44680;48.342;7.856;2022-12-07T09:02:37;27.25;;;13.20;;
58898;SDS011;44680;48.342;7.856;2022-12-07T09:05:03;27.60;;;13.88;;
58898;SDS011;44680;48.342;7.856;2022-12-07T09:07:29;27.25;;;14.40;;
58898;SDS011;44680;48.342;7.856;2022-12-07T09:09:55;28.02;;;13.70;;
58898;SDS011;44680;48.342;7.856;2022-12-07T09:12:21;27.40;;;13.65;;
58898;SDS011;44680;48.342;7.856;2022-12-07T09:14:46;28.25;;;14.25;;
58898;SDS011;44680;48.342;7.856;2022-12-07T09:17:12;28.77;;;14.73;;
58898;SDS011;44680;48.342;7.856;2022-12-07T09:19:38;26.92;;;14.27;;
58898;SDS011;44680;48.342;7.856;2022-12-07T09:22:04;26.70;;;13.32;;
58898;SDS011;44680;48.342;7.856;2022-12-07T09:24:32;28.30;;;13.70;;
58898;SDS011;44680;48.342;7.856;2022-12-07T09:26:58;25.73;;;12.52;;
58898;SDS011;44680;48.342;7.856;2022-12-07T09:29:23;28.45;;;13.48;;
58898;SDS011;44680;48.342;7.856;2022-12-07T09:31:49;25.52;;;12.43;;
58898;SDS011;44680;48.342;7.856;2022-12-07T09:34:14;28.05;;;13.82;;
58898;SDS011;44680;48.342;7.856;2022-12-07T09:36:39;27.77;;;13.73;;
58898;SDS011;44680;48.342;7.856;2022-12-07T09:39:05;24.88;;;12.55;;
58898;SDS011;44680;48.342;7.856;2022-12-07T09:41:30;28.83;;;14.00;;
58898;SDS011;44680;48.342;7.856;2022-12-07T09:43:59;29.15;;;14.07;;
58898;SDS011;44680;48.342;7.856;2022-12-07T09:46:29;27.08;;;13.55;;
58898;SDS011;44680;48.342;7.856;2022-12-07T09:49:04;28.05;;;14.52;;
58898;SDS011;44680;48.342;7.856;2022-12-07T09:51:30;26.48;;;12.68;;
58898;SDS011;44680;48.342;7.856;2022-12-07T09:53:56;27.50;;;13.20;;
58898;SDS011;44680;48.342;7.856;2022-12-07T09:56:22;23.83;;;12.35;;
58898;SDS011;44680;48.342;7.856;2022-12-07T09:58:49;27.17;;;13.43;;
58898;SDS011;44680;48.342;7.856;2022-12-07T10:01:16;26.17;;;13.43;;
58898;SDS011;44680;48.342;7.856;2022-12-07T10:03:53;24.92;;;12.50;;
58898;SDS011;44680;48.342;7.856;2022-12-07T10:06:19;27.20;;;12.52;;
58898;SDS011;44680;48.342;7.856;2022-12-07T10:08:45;26.55;;;13.25;;
58898;SDS011;44680;48.342;7.856;2022-12-07T10:11:11;26.58;;;13.18;;
58898;SDS011;44680;48.342;7.856;2022-12-07T10:13:40;26.10;;;11.75;;
58898;SDS011;44680;48.342;7.856;2022-12-07T10:16:41;24.52;;;11.85;;
58898;SDS011;44680;48.342;7.856;2022-12-07T10:24:39;25.60;;;12.23;;
58898;SDS011;44680;48.342;7.856;2022-12-07T10:27:16;24.13;;;11.95;;
58898;SDS011;44680;48.342;7.856;2022-12-07T10:34:43;28.80;;;14.10;;
58898;SDS011;44680;48.342;7.856;2022-12-07T10:39:44;24.27;;;11.82;;
58898;SDS011;44680;48.342;7.856;2022-12-07T10:42:26;27.45;;;12.98;;
58898;SDS011;44680;48.342;7.856;2022-12-07T10:50:29;23.95;;;11.65;;
58898;SDS011;44680;48.342;7.856;2022-12-07T10:53:15;24.33;;;11.13;;
58898;SDS011;44680;48.342;7.856;2022-12-07T10:58:43;26.88;;;12.00;;
58898;SDS011;44680;48.342;7.856;2022-12-07T11:01:18;26.58;;;13.60;;
58898;SDS011;44680;48.342;7.856;2022-12-07T11:03:53;26.63;;;13.02;;
58898;SDS011;44680;48.342;7.856;2022-12-07T11:06:39;27.58;;;13.00;;
58898;SDS011;44680;48.342;7.856;2022-12-07T11:11:59;27.88;;;13.10;;
58898;SDS011;44680;48.342;7.856;2022-12-07T11:17:18;28.42;;;13.70;;
58898;SDS011;44680;48.342;7.856;2022-12-07T11:23:07;25.48;;;13.20;;
58898;SDS011;44680;48.342;7.856;2022-12-07T11:25:41;25.45;;;12.45;;
58898;SDS011;44680;48.342;7.856;2022-12-07T11:28:21;24.23;;;12.63;;
58898;SDS011;44680;48.342;7.856;2022-12-07T11:38:54;26.73;;;13.75;;
58898;SDS011;44680;48.342;7.856;2022-12-07T11:41:29;26.63;;;13.02;;
58898;SDS011;44680;48.342;7.856;2022-12-07T11:44:05;26.08;;;12.38;;
58898;SDS011;44680;48.342;7.856;2022-12-07T11:46:51;25.88;;;12.80;;
58898;SDS011;44680;48.342;7.856;2022-12-07T11:49:40;25.50;;;13.15;;
58898;SDS011;44680;48.342;7.856;2022-12-07T11:54:40;23.90;;;11.27;;
58898;SDS011;44680;48.342;7.856;2022-12-07T11:57:10;23.08;;;12.25;;
58898;SDS011;44680;48.342;7.856;2022-12-07T12:02:15;24.20;;;12.20;;
58898;SDS011;44680;48.342;7.856;2022-12-07T12:04:53;23.67;;;11.15;;
58898;SDS011;44680;48.342;7.856;2022-12-07T12:07:24;25.38;;;11.68;;
58898;SDS011;44680;48.342;7.856;2022-12-07T12:10:02;25.23;;;12.85;;
58898;SDS011;44680;48.342;7.856;2022-12-07T12:20:36;23.00;;;11.73;;
58898;SDS011;44680;48.342;7.856;2022-12-07T12:23:27;25.13;;;12.13;;
58898;SDS011;44680;48.342;7.856;2022-12-07T12:25:57;23.73;;;12.05;;
58898;SDS011;44680;48.342;7.856;2022-12-07T12:31:07;23.95;;;11.93;;
58898;SDS011;44680;48.342;7.856;2022-12-07T12:33:35;27.40;;;14.20;;
58898;SDS011;44680;48.342;7.856;2022-12-07T12:36:17;24.88;;;13.18;;
58898;SDS011;44680;48.342;7.856;2022-12-07T12:51:50;25.55;;;12.38;;
58898;SDS011;44680;48.342;7.856;2022-12-07T12:54:21;24.95;;;11.20;;
58898;SDS011;44680;48.342;7.856;2022-12-07T12:56:51;23.55;;;11.25;;
58898;SDS011;44680;48.342;7.856;2022-12-07T13:01:46;24.67;;;12.48;;
58898;SDS011;44680;48.342;7.856;2022-12-07T13:04:24;25.63;;;12.13;;
58898;SDS011;44680;48.342;7.856;2022-12-07T13:06:51;30.55;;;16.10;;
58898;SDS011;44680;48.342;7.856;2022-12-07T13:09:21;28.42;;;14.30;;
58898;SDS011;44680;48.342;7.856;2022-12-07T13:11:58;27.02;;;13.85;;
58898;SDS011;44680;48.342;7.856;2022-12-07T13:14:40;26.52;;;13.98;;
58898;SDS011;44680;48.342;7.856;2022-12-07T13:20:00;21.77;;;11.18;;
58898;SDS011;44680;48.342;7.856;2022-12-07T13:25:18;34.67;;;17.65;;
58898;SDS011;44680;48.342;7.856;2022-12-07T13:27:55;32.20;;;15.43;;
58898;SDS011;44680;48.342;7.856;2022-12-07T13:30:24;31.08;;;15.38;;
58898;SDS011;44680;48.342;7.856;2022-12-07T13:32:57;31.80;;;18.65;;
58898;SDS011;44680;48.342;7.856;2022-12-07T13:35:27;21.75;;;11.82;;
58898;SDS011;44680;48.342;7.856;2022-12-07T13:38:19;20.80;;;11.27;;
58898;SDS011;44680;48.342;7.856;2022-12-07T13:43:49;18.13;;;9.55;;
58898;SDS011;44680;48.342;7.856;2022-12-07T13:46:24;16.25;;;8.93;;
58898;SDS011;44680;48.342;7.856;2022-12-07T13:48:51;15.48;;;8.52;;
58898;SDS011;44680;48.342;7.856;2022-12-07T13:51:18;17.02;;;8.93;;
58898;SDS011;44680;48.342;7.856;2022-12-07T13:53:46;14.50;;;7.68;;
58898;SDS011;44680;48.342;7.856;2022-12-07T13:56:20;15.47;;;8.40;;
58898;SDS011;44680;48.342;7.856;2022-12-07T13:58:47;15.75;;;8.13;;
58898;SDS011;44680;48.342;7.856;2022-12-07T14:01:12;13.48;;;7.70;;
58898;SDS011;44680;48.342;7.856;2022-12-07T14:03:38;14.32;;;8.40;;
58898;SDS011;44680;48.342;7.856;2022-12-07T14:08:29;15.60;;;8.40;;
58898;SDS011;44680;48.342;7.856;2022-12-07T14:10:55;19.98;;;9.70;;
58898;SDS011;44680;48.342;7.856;2022-12-07T14:16:25;16.70;;;8.65;;
58898;SDS011;44680;48.342;7.856;2022-12-07T14:18:54;15.55;;;8.65;;
58898;SDS011;44680;48.342;7.856;2022-12-07T14:21:22;16.63;;;8.75;;
58898;SDS011;44680;48.342;7.856;2022-12-07T14:24:02;17.08;;;8.48;;
58898;SDS011;44680;48.342;7.856;2022-12-07T14:26:33;15.52;;;7.88;;
58898;SDS011;44680;48.342;7.856;2022-12-07T14:31:52;17.40;;;8.88;;
58898;SDS011;44680;48.342;7.856;2022-12-07T14:34:21;17.42;;;8.70;;
58898;SDS011;44680;48.342;7.856;2022-12-07T14:36:47;16.15;;;8.98;;
58898;SDS011;44680;48.342;7.856;2022-12-07T14:39:12;16.55;;;8.25;;
58898;SDS011;44680;48.342;7.856;2022-12-07T14:41:38;17.98;;;8.65;;
58898;SDS011;44680;48.342;7.856;2022-12-07T14:44:15;25.13;;;11.77;;
58898;SDS011;44680;48.342;7.856;2022-12-07T14:46:41;20.50;;;9.55;;
58898;SDS011;44680;48.342;7.856;2022-12-07T14:49:06;17.95;;;9.43;;
58898;SDS011;44680;48.342;7.856;2022-12-07T14:51:32;17.83;;;8.35;;
58898;SDS011;44680;48.342;7.856;2022-12-07T14:53:58;16.92;;;8.70;;
58898;SDS011;44680;48.342;7.856;2022-12-07T14:56:23;19.33;;;8.63;;
58898;SDS011;44680;48.342;7.856;2022-12-07T14:58:49;26.98;;;11.40;;
58898;SDS011;44680;48.342;7.856;2022-12-07T15:01:14;24.60;;;10.15;;
58898;SDS011;44680;48.342;7.856;2022-12-07T15:03:40;19.13;;;8.82;;
58898;SDS011;44680;48.342;7.856;2022-12-07T15:06:05;17.48;;;8.02;;
58898;SDS011;44680;48.342;7.856;2022-12-07T15:08:31;16.30;;;8.20;;
58898;SDS011;44680;48.342;7.856;2022-12-07T15:10:56;27.02;;;11.38;;
58898;SDS011;44680;48.342;7.856;2022-12-07T15:13:22;21.40;;;9.88;;
58898;SDS011;44680;48.342;7.856;2022-12-07T15:16:08;20.20;;;9.27;;
58898;SDS011;44680;48.342;7.856;2022-12-07T15:18:35;20.65;;;9.25;;
58898;SDS011;44680;48.342;7.856;2022-12-07T15:21:00;21.17;;;9.18;;
58898;SDS011;44680;48.342;7.856;2022-12-07T15:23:25;17.30;;;8.45;;
58898;SDS011;44680;48.342;7.856;2022-12-07T15:25:51;18.73;;;9.10;;
58898;SDS011;44680;48.342;7.856;2022-12-07T15:28:16;18.33;;;9.30;;
58898;SDS011;44680;48.342;7.856;2022-12-07T15:30:42;19.98;;;10.68;;
58898;SDS011;44680;48.342;7.856;2022-12-07T15:33:08;20.73;;;11.43;;
58898;SDS011;44680;48.342;7.856;2022-12-07T15:35:33;22.13;;;12.35;;
58898;SDS011;44680;48.342;7.856;2022-12-07T15:38:03;18.13;;;9.45;;
58898;SDS011;44680;48.342;7.856;2022-12-07T15:40:29;21.33;;;9.45;;
58898;SDS011;44680;48.342;7.856;2022-12-07T15:42:54;21.55;;;8.98;;
58898;SDS011;44680;48.342;7.856;2022-12-07T15:45:20;18.50;;;8.57;;
58898;SDS011;44680;48.342;7.856;2022-12-07T15:47:45;18.83;;;9.00;;
58898;SDS011;44680;48.342;7.856;2022-12-07T15:50:12;22.95;;;10.50;;
58898;SDS011;44680;48.342;7.856;2022-12-07T15:52:39;27.30;;;12.05;;
58898;SDS011;44680;48.342;7.856;2022-12-07T15:55:05;27.58;;;13.38;;
58898;SDS011;44680;48.342;7.856;2022-12-07T15:57:31;24.80;;;11.68;;
58898;SDS011;44680;48.342;7.856;2022-12-07T15:59:57;23.20;;;11.13;;
58898;SDS011;44680;48.342;7.856;2022-12-07T16:02:23;19.88;;;9.57;;
58898;SDS011;44680;48.342;7.856;2022-12-07T16:04:49;21.25;;;9.82;;
58898;SDS011;44680;48.342;7.856;2022-12-07T16:07:15;20.20;;;9.52;;
58898;SDS011;44680;48.342;7.856;2022-12-07T16:09:41;19.83;;;9.63;;
58898;SDS011;44680;48.342;7.856;2022-12-07T16:12:07;19.48;;;10.15;;
58898;SDS011;44680;48.342;7.856;2022-12-07T16:14:32;22.70;;;10.90;;
58898;SDS011;44680;48.342;7.856;2022-12-07T16:16:58;21.33;;;10.82;;
58898;SDS011;44680;48.342;7.856;2022-12-07T16:19:24;20.52;;;10.30;;
58898;SDS011;44680;48.342;7.856;2022-12-07T16:21:49;23.10;;;11.27;;
58898;SDS011;44680;48.342;7.856;2022-12-07T16:24:14;23.20;;;10.38;;
58898;SDS011;44680;48.342;7.856;2022-12-07T16:26:41;22.10;;;10.35;;
58898;SDS011;44680;48.342;7.856;2022-12-07T16:29:07;19.73;;;10.02;;